createdAt,value
2023-11-30T00:01:41.581Z,11.27
2023-11-30T00:04:08.045Z,10.45
2023-11-30T00:06:38.529Z,9.60
2023-11-30T00:09:05.023Z,9.95
2023-11-30T00:11:31.438Z,9.35
2023-11-30T00:13:57.811Z,9.95
2023-11-30T00:16:24.285Z,9.30
2023-11-30T00:18:50.683Z,9.68
2023-11-30T00:21:19.174Z,9.70
2023-11-30T00:23:45.476Z,9.50
2023-11-30T00:26:18.705Z,9.75
2023-11-30T00:28:45.035Z,9.07
2023-11-30T00:31:11.523Z,9.48
2023-11-30T00:33:37.897Z,9.70
2023-11-30T00:36:07.434Z,10.35
2023-11-30T00:38:33.763Z,8.60
2023-11-30T00:41:00.213Z,10.77
2023-11-30T00:43:26.535Z,9.80
2023-11-30T00:46:03.243Z,9.57
2023-11-30T00:48:35.982Z,9.77
2023-11-30T00:51:03.438Z,9.73
2023-11-30T00:53:29.837Z,10.25
2023-11-30T00:55:57.201Z,9.65
2023-11-30T00:58:23.527Z,9.75
2023-11-30T01:00:50.031Z,10.00
2023-11-30T01:03:16.441Z,10.18
2023-11-30T01:05:46.054Z,10.52
2023-11-30T01:08:15.713Z,11.57
2023-11-30T01:10:43.829Z,10.80
2023-11-30T01:13:10.198Z,10.95
2023-11-30T01:15:38.637Z,11.50
2023-11-30T01:18:05.313Z,12.60
2023-11-30T01:20:34.455Z,12.32
2023-11-30T01:23:00.853Z,12.40
2023-11-30T01:25:27.207Z,11.65
2023-11-30T01:27:53.497Z,12.02
2023-11-30T01:30:20.383Z,10.75
2023-11-30T01:32:46.782Z,10.35
2023-11-30T01:35:17.542Z,10.77
2023-11-30T01:37:43.884Z,11.68
2023-11-30T01:40:10.736Z,10.48
2023-11-30T01:42:37.384Z,11.65
2023-11-30T01:45:07.204Z,10.48
2023-11-30T01:47:33.720Z,11.35
2023-11-30T01:50:03.533Z,11.63
2023-11-30T01:52:30.468Z,13.13
2023-11-30T01:54:58.783Z,12.15
2023-11-30T01:57:25.263Z,12.63
2023-11-30T01:59:52.692Z,13.07
2023-11-30T02:02:19.278Z,12.77
2023-11-30T02:04:48.407Z,14.20
2023-11-30T02:07:15.039Z,13.57
2023-11-30T02:09:42.502Z,13.90
2023-11-30T02:12:08.918Z,13.85
2023-11-30T02:14:35.552Z,14.13
2023-11-30T02:17:03.260Z,13.25
2023-11-30T02:19:29.898Z,12.80
2023-11-30T02:21:56.402Z,12.68
2023-11-30T02:24:22.864Z,13.18
2023-11-30T02:26:49.360Z,12.35
2023-11-30T02:29:16.803Z,12.73
2023-11-30T02:31:43.524Z,12.77
2023-11-30T02:34:10.079Z,12.85
2023-11-30T02:36:36.487Z,14.23
2023-11-30T02:39:03.315Z,13.23
2023-11-30T02:41:30.758Z,13.32
2023-11-30T02:43:57.297Z,13.68
2023-11-30T02:46:25.055Z,14.13
2023-11-30T02:48:51.592Z,13.98
2023-11-30T02:51:18.096Z,14.35
2023-11-30T02:53:44.468Z,16.77
2023-11-30T02:56:10.992Z,14.52
2023-11-30T02:58:37.389Z,14.40
2023-11-30T03:01:05.099Z,15.88
2023-11-30T03:03:31.557Z,16.27
2023-11-30T03:05:59.201Z,15.57
2023-11-30T03:08:25.601Z,15.30
2023-11-30T03:10:53.832Z,15.77
2023-11-30T03:13:20.136Z,16.15
2023-11-30T03:15:47.822Z,16.85
2023-11-30T03:18:14.425Z,16.17
2023-11-30T03:20:40.933Z,17.10
2023-11-30T03:23:07.292Z,16.88
2023-11-30T03:25:37.239Z,18.65
2023-11-30T03:28:03.715Z,17.70
2023-11-30T03:30:31.431Z,18.83
2023-11-30T03:32:59.609Z,17.15
2023-11-30T03:35:27.127Z,17.48
2023-11-30T03:37:53.413Z,18.33
2023-11-30T03:40:19.791Z,17.02
2023-11-30T03:42:46.112Z,18.17
2023-11-30T03:45:13.567Z,17.80
2023-11-30T03:47:39.988Z,17.77
2023-11-30T03:50:06.657Z,16.02
2023-11-30T03:52:32.950Z,15.93
2023-11-30T03:55:01.415Z,16.75
2023-11-30T03:57:27.796Z,16.17
2023-11-30T03:59:54.221Z,16.33
2023-11-30T04:02:20.581Z,16.42
2023-11-30T04:04:46.992Z,16.02
2023-11-30T04:07:13.623Z,16.67
2023-11-30T04:09:41.240Z,16.45
2023-11-30T04:12:07.727Z,17.10
2023-11-30T04:14:34.042Z,17.05
2023-11-30T04:17:03.427Z,17.08
2023-11-30T04:19:31.055Z,17.48
2023-11-30T04:21:57.394Z,17.85
2023-11-30T04:24:23.885Z,17.40
2023-11-30T04:26:51.895Z,17.63
2023-11-30T04:29:18.370Z,17.27
2023-11-30T04:31:46.882Z,17.50
2023-11-30T04:34:13.284Z,16.55
2023-11-30T04:36:42.769Z,16.75
2023-11-30T04:39:09.121Z,17.77
2023-11-30T04:41:36.363Z,16.92
2023-11-30T04:44:03.393Z,16.95
2023-11-30T04:46:33.053Z,16.65
2023-11-30T04:49:02.422Z,16.77
2023-11-30T04:51:32.157Z,17.15
2023-11-30T04:53:58.567Z,14.75
2023-11-30T04:56:25.329Z,16.70
2023-11-30T04:58:51.614Z,16.08
2023-11-30T05:01:19.116Z,15.00
2023-11-30T05:03:45.899Z,15.05
2023-11-30T05:06:13.728Z,14.70
2023-11-30T05:08:40.009Z,13.43
2023-11-30T05:11:06.495Z,14.00
2023-11-30T05:13:32.837Z,13.95
2023-11-30T05:16:00.358Z,15.10
2023-11-30T05:18:26.685Z,15.25
2023-11-30T05:20:55.050Z,15.82
2023-11-30T05:23:21.382Z,15.52
2023-11-30T05:25:48.756Z,15.80
2023-11-30T05:28:15.088Z,14.98
2023-11-30T05:30:42.701Z,15.85
2023-11-30T05:33:09.382Z,15.93
2023-11-30T05:35:38.895Z,15.52
2023-11-30T05:38:05.169Z,16.70
2023-11-30T05:40:31.500Z,15.63
2023-11-30T05:42:57.842Z,16.08
2023-11-30T05:45:24.393Z,16.50
2023-11-30T05:47:51.865Z,17.05
2023-11-30T05:50:20.517Z,16.35
2023-11-30T05:52:47.066Z,16.73
2023-11-30T05:55:15.595Z,16.45
2023-11-30T05:57:41.901Z,16.70
2023-11-30T06:00:11.590Z,17.63
2023-11-30T06:02:38.005Z,16.15
2023-11-30T06:05:04.705Z,15.85
2023-11-30T06:07:31.041Z,16.85
2023-11-30T06:09:58.478Z,16.30
2023-11-30T06:12:25.315Z,16.08
2023-11-30T06:14:52.877Z,16.38
2023-11-30T06:17:19.512Z,16.17
2023-11-30T06:19:50.968Z,16.15
2023-11-30T06:22:17.284Z,15.82
2023-11-30T06:24:44.767Z,15.02
2023-11-30T06:27:11.277Z,15.70
2023-11-30T06:29:37.714Z,15.57
2023-11-30T06:32:04.172Z,17.30
2023-11-30T06:34:30.604Z,14.70
2023-11-30T06:36:57.014Z,14.55
2023-11-30T06:39:24.456Z,16.15
2023-11-30T06:41:53.622Z,14.77
2023-11-30T06:44:21.370Z,14.93
2023-11-30T06:46:47.938Z,14.40
2023-11-30T06:49:14.313Z,14.65
2023-11-30T06:51:40.721Z,14.50
2023-11-30T06:54:07.120Z,14.55
2023-11-30T06:56:33.471Z,14.07
2023-11-30T06:59:02.888Z,13.63
2023-11-30T07:01:31.096Z,15.05
2023-11-30T07:03:57.637Z,15.15
2023-11-30T07:06:24.129Z,14.70
2023-11-30T07:08:50.481Z,15.63
2023-11-30T07:11:16.819Z,15.73
2023-11-30T07:13:43.187Z,16.08
2023-11-30T07:16:09.937Z,15.43
2023-11-30T07:18:36.396Z,15.00
2023-11-30T07:21:03.422Z,15.18
2023-11-30T07:23:29.774Z,13.65
2023-11-30T07:25:56.188Z,15.38
2023-11-30T07:28:22.559Z,15.13
2023-11-30T07:30:57.284Z,15.98
2023-11-30T07:33:23.693Z,15.82
2023-11-30T07:35:51.008Z,15.27
2023-11-30T07:38:17.315Z,16.45
2023-11-30T07:40:43.584Z,15.07
2023-11-30T07:43:09.913Z,15.30
2023-11-30T07:45:36.339Z,16.00
2023-11-30T07:48:04.427Z,16.08
2023-11-30T07:50:31.006Z,16.02
2023-11-30T07:52:57.366Z,17.08
2023-11-30T07:55:24.126Z,17.88
2023-11-30T07:57:50.994Z,14.43
2023-11-30T08:00:17.581Z,14.95
2023-11-30T08:02:44.047Z,15.07
2023-11-30T08:05:10.445Z,16.85
2023-11-30T08:07:36.808Z,16.83
2023-11-30T08:10:05.801Z,15.65
2023-11-30T08:12:32.932Z,18.52
2023-11-30T08:14:59.360Z,18.77
2023-11-30T08:17:26.283Z,17.80
2023-11-30T08:19:52.679Z,18.80
2023-11-30T08:22:18.934Z,19.50
2023-11-30T08:24:47.287Z,20.27
2023-11-30T08:27:13.783Z,20.27
2023-11-30T08:29:40.150Z,19.52
2023-11-30T08:32:06.660Z,21.10
2023-11-30T08:34:33.007Z,19.33
2023-11-30T08:36:59.570Z,19.45
2023-11-30T08:39:25.929Z,20.55
2023-11-30T08:41:52.358Z,22.25
2023-11-30T08:44:18.688Z,24.92
2023-11-30T08:46:45.031Z,24.33
2023-11-30T08:49:13.046Z,21.63
2023-11-30T08:51:42.077Z,23.05
2023-11-30T08:54:11.068Z,22.00
2023-11-30T08:56:38.278Z,22.85
2023-11-30T08:59:04.790Z,20.63
2023-11-30T09:01:31.369Z,22.70
2023-11-30T09:04:01.057Z,21.80
2023-11-30T09:06:27.556Z,21.98
2023-11-30T09:08:54.119Z,20.65
2023-11-30T09:11:21.143Z,20.25
2023-11-30T09:13:48.183Z,21.70
2023-11-30T09:16:14.543Z,21.50
2023-11-30T09:18:40.863Z,18.52
2023-11-30T09:21:07.912Z,17.90
2023-11-30T09:23:34.213Z,19.88
2023-11-30T09:33:19.480Z,18.33
2023-11-30T09:36:04.060Z,16.45
2023-11-30T09:38:30.412Z,16.42
2023-11-30T09:40:56.795Z,15.45
2023-11-30T09:43:23.127Z,14.10
2023-11-30T09:45:50.816Z,14.32
2023-11-30T09:48:17.419Z,14.25
2023-11-30T09:50:43.863Z,13.77
2023-11-30T09:53:10.171Z,12.15
2023-11-30T09:55:37.515Z,12.68
2023-11-30T09:58:04.892Z,11.73
2023-11-30T10:00:31.421Z,11.25
2023-11-30T10:03:00.921Z,12.25
2023-11-30T10:05:29.577Z,10.93
2023-11-30T10:07:59.393Z,10.90
2023-11-30T10:10:26.089Z,11.25
2023-11-30T10:12:54.174Z,11.20
2023-11-30T10:15:21.351Z,9.93
2023-11-30T10:17:50.041Z,9.13
2023-11-30T10:20:19.570Z,10.15
2023-11-30T10:22:46.098Z,9.23
2023-11-30T10:25:13.975Z,9.27
2023-11-30T10:27:41.814Z,8.90
2023-11-30T10:30:12.014Z,8.35
2023-11-30T10:32:40.279Z,9.38
2023-11-30T10:35:07.109Z,9.32
2023-11-30T10:37:35.548Z,9.20
2023-11-30T10:40:13.374Z,8.98
2023-11-30T10:42:45.520Z,8.63
2023-11-30T10:45:14.507Z,9.60
2023-11-30T10:47:42.299Z,10.32
2023-11-30T10:50:15.201Z,9.57
2023-11-30T10:52:44.208Z,9.95
2023-11-30T10:55:14.754Z,9.50
2023-11-30T10:57:42.978Z,9.15
2023-11-30T11:00:13.967Z,9.70
2023-11-30T11:02:44.791Z,9.38
2023-11-30T11:05:14.200Z,9.85
2023-11-30T11:07:46.725Z,9.88
2023-11-30T11:10:29.526Z,10.10
2023-11-30T11:13:02.361Z,8.77
2023-11-30T11:15:29.816Z,9.43
2023-11-30T11:18:01.704Z,9.82
2023-11-30T11:20:29.744Z,9.13
2023-11-30T11:23:05.189Z,10.23
2023-11-30T11:25:42.114Z,9.80
2023-11-30T11:28:08.728Z,9.82
2023-11-30T11:30:41.875Z,9.35
2023-11-30T11:33:08.689Z,11.60
2023-11-30T11:35:36.030Z,12.00
2023-11-30T11:38:02.680Z,14.90
2023-11-30T11:40:29.106Z,14.88
2023-11-30T11:42:55.688Z,16.23
2023-11-30T11:45:22.331Z,16.77
2023-11-30T11:47:48.789Z,14.77
2023-11-30T11:50:16.290Z,15.93
2023-11-30T11:52:42.638Z,15.35
2023-11-30T11:55:10.000Z,14.23
2023-11-30T11:57:37.521Z,15.55
2023-11-30T12:00:05.122Z,9.82
2023-11-30T12:02:32.549Z,12.07
2023-11-30T12:05:10.012Z,14.07
2023-11-30T12:07:37.554Z,13.00
2023-11-30T12:10:05.426Z,12.75
2023-11-30T12:12:32.880Z,12.80
2023-11-30T12:14:59.362Z,13.73
2023-11-30T12:17:25.690Z,13.27
2023-11-30T12:19:52.045Z,14.48
2023-11-30T12:22:18.396Z,14.13
2023-11-30T12:24:45.754Z,13.80
2023-11-30T12:27:12.151Z,14.93
2023-11-30T12:29:39.483Z,14.00
2023-11-30T12:32:06.231Z,13.80
2023-11-30T12:34:32.894Z,15.38
2023-11-30T12:36:59.364Z,14.05
2023-11-30T12:39:27.754Z,14.07
2023-11-30T12:41:54.138Z,14.65
2023-11-30T12:44:20.615Z,14.90
2023-11-30T12:46:47.173Z,15.02
2023-11-30T12:49:14.600Z,13.38
2023-11-30T12:51:40.977Z,15.20
2023-11-30T12:54:08.592Z,13.20
2023-11-30T12:56:34.889Z,15.50
2023-11-30T12:59:01.404Z,15.25
2023-11-30T13:01:27.760Z,14.18
2023-11-30T13:03:54.267Z,14.40
2023-11-30T13:06:20.682Z,14.48
2023-11-30T13:08:47.027Z,15.18
2023-11-30T13:11:14.389Z,15.82
2023-11-30T13:13:42.644Z,14.13
2023-11-30T13:16:12.774Z,12.52
2023-11-30T13:18:39.948Z,13.98
2023-11-30T13:21:06.559Z,13.75
2023-11-30T13:23:32.957Z,14.82
2023-11-30T13:26:01.229Z,13.85
2023-11-30T13:28:35.287Z,14.05
2023-11-30T13:31:07.229Z,14.65
2023-11-30T13:33:33.982Z,15.57
2023-11-30T13:36:00.294Z,14.02
2023-11-30T13:38:26.627Z,15.50
2023-11-30T13:40:52.918Z,13.30
2023-11-30T13:43:19.385Z,15.40
2023-11-30T13:45:45.933Z,16.65
2023-11-30T13:48:13.948Z,15.68
2023-11-30T13:50:49.464Z,16.33
2023-11-30T13:53:19.828Z,14.55
2023-11-30T13:55:46.175Z,16.45
2023-11-30T13:58:12.552Z,17.15
2023-11-30T14:00:43.396Z,15.77
2023-11-30T14:05:36.405Z,14.98
2023-11-30T14:08:03.396Z,14.57
2023-11-30T14:10:30.557Z,16.05
2023-11-30T14:12:56.948Z,15.88
2023-11-30T14:15:23.319Z,16.42
2023-11-30T14:17:50.797Z,16.27
2023-11-30T14:20:18.409Z,18.25
2023-11-30T14:22:44.788Z,17.88
2023-11-30T14:25:13.511Z,16.25
2023-11-30T14:27:40.069Z,16.63
2023-11-30T14:30:11.219Z,18.45
2023-11-30T14:32:39.723Z,17.83
2023-11-30T14:35:06.990Z,17.15
2023-11-30T14:37:33.539Z,19.08
2023-11-30T14:39:59.912Z,18.45
2023-11-30T14:42:26.361Z,17.95
2023-11-30T14:44:53.442Z,18.10
2023-11-30T14:47:26.177Z,17.27
2023-11-30T14:49:52.831Z,17.08
2023-11-30T14:52:19.232Z,18.15
2023-11-30T14:54:52.494Z,18.42
2023-11-30T14:57:20.061Z,18.33
2023-11-30T14:59:47.891Z,19.17
2023-11-30T15:02:14.966Z,19.58
2023-11-30T15:04:42.455Z,18.60
2023-11-30T15:07:09.019Z,17.55
2023-11-30T15:09:36.414Z,17.63
2023-11-30T15:12:02.835Z,17.40
2023-11-30T15:14:29.180Z,17.83
2023-11-30T15:16:55.822Z,17.83
2023-11-30T15:19:22.260Z,17.63
2023-11-30T15:21:48.567Z,18.13
2023-11-30T15:24:14.940Z,17.55
2023-11-30T15:26:41.350Z,16.55
2023-11-30T15:29:07.808Z,16.30
2023-11-30T15:31:37.082Z,18.60
2023-11-30T15:34:03.455Z,17.00
2023-11-30T15:36:31.100Z,15.70
2023-11-30T15:39:01.467Z,20.15
2023-11-30T15:41:27.799Z,18.98
2023-11-30T15:43:54.124Z,18.42
2023-11-30T15:46:21.428Z,19.10
2023-11-30T15:48:47.787Z,18.70
2023-11-30T15:51:14.262Z,17.50
2023-11-30T15:53:40.805Z,17.10
2023-11-30T15:56:07.458Z,17.40
2023-11-30T15:58:33.929Z,16.90
2023-11-30T16:01:12.414Z,16.98
2023-11-30T16:03:38.842Z,16.30
2023-11-30T16:06:15.276Z,17.27
2023-11-30T16:08:41.614Z,15.88
2023-11-30T16:11:14.984Z,16.55
2023-11-30T16:13:41.330Z,16.80
2023-11-30T16:16:08.135Z,12.05
2023-11-30T16:18:34.980Z,17.40
2023-11-30T16:21:01.323Z,16.98
2023-11-30T16:23:27.606Z,16.33
2023-11-30T16:25:54.859Z,17.45
2023-11-30T16:28:21.379Z,17.27
2023-11-30T16:30:47.848Z,15.88
2023-11-30T16:33:14.190Z,16.75
2023-11-30T16:35:40.464Z,17.25
2023-11-30T16:38:06.725Z,17.00
2023-11-30T16:40:33.099Z,16.27
2023-11-30T16:42:59.368Z,17.08
2023-11-30T16:45:27.692Z,16.90
2023-11-30T16:47:55.392Z,15.07
2023-11-30T16:50:21.768Z,18.02
2023-11-30T16:52:48.961Z,16.77
2023-11-30T16:55:15.492Z,16.52
2023-11-30T16:57:42.888Z,17.25
2023-11-30T17:00:09.573Z,17.15
2023-11-30T17:02:36.064Z,16.80
2023-11-30T17:05:02.443Z,17.35
2023-11-30T17:07:29.343Z,16.55
2023-11-30T17:09:55.653Z,17.27
2023-11-30T17:12:22.769Z,17.00
2023-11-30T17:14:49.193Z,19.95
2023-11-30T17:17:15.486Z,18.33
2023-11-30T17:19:41.985Z,17.83
2023-11-30T17:22:08.369Z,17.45
2023-11-30T17:24:34.761Z,16.88
2023-11-30T17:27:01.128Z,16.40
2023-11-30T17:29:27.470Z,17.85
2023-11-30T17:31:53.829Z,18.05
2023-11-30T17:34:20.433Z,20.10
2023-11-30T17:36:47.616Z,19.45
2023-11-30T17:39:17.277Z,18.55
2023-11-30T17:41:45.546Z,18.90
2023-11-30T17:44:12.050Z,17.33
2023-11-30T17:46:39.666Z,19.05
2023-11-30T17:49:06.674Z,18.63
2023-11-30T17:51:33.046Z,17.63
2023-11-30T17:53:59.341Z,17.63
2023-11-30T17:56:25.677Z,17.60
2023-11-30T17:58:52.109Z,16.38
2023-11-30T18:01:18.454Z,17.48
2023-11-30T18:03:44.881Z,18.63
2023-11-30T18:06:11.995Z,17.05
2023-11-30T18:08:39.664Z,16.75
2023-11-30T18:11:06.243Z,16.00
2023-11-30T18:13:32.658Z,16.95
2023-11-30T18:16:01.987Z,17.42
2023-11-30T18:20:56.231Z,14.75
2023-11-30T18:23:22.580Z,16.30
2023-11-30T18:25:48.873Z,17.70
2023-11-30T18:28:15.215Z,18.15
2023-11-30T18:30:42.574Z,18.13
2023-11-30T18:33:10.878Z,17.85
2023-11-30T18:35:40.948Z,18.70
2023-11-30T18:38:07.826Z,17.70
2023-11-30T18:40:34.283Z,18.13
2023-11-30T18:43:00.784Z,18.02
2023-11-30T18:45:30.076Z,19.73
2023-11-30T18:47:56.386Z,17.42
2023-11-30T18:50:22.685Z,19.50
2023-11-30T18:52:49.860Z,18.98
2023-11-30T18:55:16.259Z,18.25
2023-11-30T18:57:42.552Z,18.90
2023-11-30T19:00:09.256Z,18.95
2023-11-30T19:02:35.908Z,18.67
2023-11-30T19:05:03.509Z,17.95
2023-11-30T19:07:31.466Z,19.95
2023-11-30T19:09:57.955Z,18.20
2023-11-30T19:12:24.311Z,18.60
2023-11-30T19:14:50.906Z,19.15
2023-11-30T19:17:19.063Z,19.20
2023-11-30T19:19:45.377Z,20.17
2023-11-30T19:22:11.693Z,17.52
2023-11-30T19:24:40.125Z,20.23
2023-11-30T19:27:06.692Z,19.67
2023-11-30T19:29:33.163Z,20.40
2023-11-30T19:31:59.528Z,21.02
2023-11-30T19:34:25.823Z,21.00
2023-11-30T19:36:52.266Z,21.30
2023-11-30T19:39:18.685Z,21.58
2023-11-30T19:41:46.347Z,22.77
2023-11-30T19:44:14.353Z,23.55
2023-11-30T19:46:40.712Z,20.48
2023-11-30T19:49:07.107Z,18.85
2023-11-30T19:51:33.698Z,19.58
2023-11-30T19:54:00.049Z,20.65
2023-11-30T19:56:26.398Z,16.63
2023-11-30T19:58:52.847Z,20.88
2023-11-30T20:01:25.250Z,19.20
2023-11-30T20:03:51.813Z,17.20
2023-11-30T20:06:20.590Z,19.75
2023-11-30T20:08:46.884Z,18.80
2023-11-30T20:11:14.966Z,17.98
2023-11-30T20:13:42.356Z,18.40
2023-11-30T20:16:11.635Z,17.98
2023-11-30T20:18:38.925Z,19.48
2023-11-30T20:21:05.891Z,19.20
2023-11-30T20:23:32.290Z,19.08
2023-11-30T20:25:58.617Z,19.10
2023-11-30T20:28:24.931Z,17.30
2023-11-30T20:30:52.393Z,17.08
2023-11-30T20:33:18.763Z,17.65
2023-11-30T20:35:45.100Z,17.42
2023-11-30T20:38:11.474Z,23.58
2023-11-30T20:40:38.445Z,19.58
2023-11-30T20:43:04.759Z,18.08
2023-11-30T20:45:31.133Z,17.17
2023-11-30T20:47:57.494Z,20.25
2023-11-30T20:50:23.930Z,21.48
2023-11-30T20:52:50.257Z,19.08
2023-11-30T20:55:16.787Z,16.98
2023-11-30T20:57:45.519Z,17.67
2023-11-30T21:00:12.171Z,19.50
2023-11-30T21:02:38.572Z,18.65
2023-11-30T21:05:06.279Z,19.10
2023-11-30T21:07:32.648Z,19.35
2023-11-30T21:10:02.993Z,17.08
2023-11-30T21:12:29.453Z,18.90
2023-11-30T21:14:55.955Z,17.83
2023-11-30T21:17:22.941Z,17.45
2023-11-30T21:19:51.248Z,17.98
2023-11-30T21:22:17.598Z,17.63
2023-11-30T21:24:46.104Z,16.95
2023-11-30T21:27:13.729Z,11.93
2023-11-30T21:29:47.161Z,16.70
2023-11-30T21:32:13.502Z,16.98
2023-11-30T21:34:41.032Z,15.60
2023-11-30T21:37:07.409Z,15.10
2023-11-30T21:39:35.292Z,16.13
2023-11-30T21:42:01.622Z,15.07
2023-11-30T21:44:39.335Z,17.00
2023-11-30T21:47:06.397Z,16.02
2023-11-30T21:49:33.806Z,15.45
2023-11-30T21:52:00.413Z,17.13
2023-11-30T21:54:27.861Z,14.68
2023-11-30T21:56:54.158Z,15.02
2023-11-30T21:59:21.607Z,15.05
2023-11-30T22:01:48.081Z,12.38
2023-11-30T22:04:28.608Z,13.30
2023-11-30T22:06:55.031Z,13.02
2023-11-30T22:09:22.558Z,15.65
2023-11-30T22:11:50.276Z,14.00
2023-11-30T22:14:17.748Z,14.82
2023-11-30T22:16:44.158Z,12.68
2023-11-30T22:19:12.920Z,13.70
2023-11-30T22:21:39.412Z,15.25
2023-11-30T22:24:05.943Z,14.50
2023-11-30T22:26:32.312Z,14.25
2023-11-30T22:28:59.353Z,14.18
2023-11-30T22:31:26.333Z,13.68
2023-11-30T22:33:52.773Z,12.80
2023-11-30T22:36:19.131Z,13.50
2023-11-30T22:38:46.422Z,14.70
2023-11-30T22:41:13.191Z,13.90
2023-11-30T22:43:39.572Z,13.25
2023-11-30T22:46:06.253Z,13.43
2023-11-30T22:48:34.057Z,13.65
2023-11-30T22:51:02.335Z,13.27
2023-11-30T22:53:28.668Z,13.57
2023-11-30T22:55:55.229Z,14.25
2023-11-30T22:58:21.686Z,15.80
2023-11-30T23:00:57.200Z,13.80
2023-11-30T23:03:23.769Z,13.75
2023-11-30T23:05:57.206Z,13.77
2023-11-30T23:08:23.761Z,14.65
2023-11-30T23:11:00.246Z,16.02
2023-11-30T23:13:26.540Z,14.70
2023-11-30T23:15:58.169Z,14.40
2023-11-30T23:18:24.990Z,14.68
2023-11-30T23:20:52.406Z,14.95
2023-11-30T23:23:18.724Z,15.90
2023-11-30T23:25:46.114Z,13.82
2023-11-30T23:28:12.400Z,15.43
2023-11-30T23:30:48.265Z,15.80
2023-11-30T23:33:14.692Z,16.88
2023-11-30T23:35:54.139Z,17.25
2023-11-30T23:38:20.500Z,16.60
2023-11-30T23:40:46.849Z,18.48
2023-11-30T23:43:13.241Z,17.45
2023-11-30T23:45:43.769Z,15.95
2023-11-30T23:48:10.208Z,15.13
2023-11-30T23:50:36.616Z,15.88
2023-11-30T23:53:03.502Z,17.55
2023-11-30T23:55:46.004Z,10.90
2023-11-30T23:58:12.447Z,13.70
